Time;durP1;ratioP1;P1;durP2;ratioP2;P2;SDS_P1;SDS_P2;PMS_P1;PMS_P2;Temp;Humidity;BMP_temperature;BMP_pressure;BME280_temperature;BME280_humidity;BME280_pressure;Samples;Min_cycle;Max_cycle;Signal;HPM_P1;HPM_P2
2021/10/26 00:02:13;;;;;;;4.80;4.18;;;;;;;18.17;68.03;101738.88;4882975;29;20029;-86
2021/10/26 00:04:40;;;;;;;5.07;4.22;;;;;;;18.18;67.89;101737.13;4867196;29;20466;-85
2021/10/26 00:07:05;;;;;;;5.05;4.10;;;;;;;18.17;67.93;101730.19;4867398;29;20036;-86
2021/10/26 00:09:31;;;;;;;4.45;3.63;;;;;;;18.17;67.93;101738.00;4851761;29;20060;-86
2021/10/26 00:11:58;;;;;;;5.85;4.10;;;;;;;18.18;67.83;101744.94;4882389;29;20079;-82
2021/10/26 00:14:24;;;;;;;4.10;3.70;;;;;;;18.18;67.74;101751.06;4882422;29;20044;-85
2021/10/26 00:16:49;;;;;;;4.82;3.85;;;;;;;18.19;67.84;101759.72;4882373;29;20044;-86
2021/10/26 00:19:15;;;;;;;4.20;3.78;;;;;;;18.18;67.96;101753.66;4867037;29;20123;-85
2021/10/26 00:21:40;;;;;;;4.32;3.65;;;;;;;18.21;67.89;101753.66;4866861;29;20024;-85
2021/10/26 00:24:06;;;;;;;4.30;3.70;;;;;;;18.20;67.78;101759.72;4866846;29;20036;-85
2021/10/26 00:26:31;;;;;;;8.45;4.10;;;;;;;18.20;67.86;101753.63;4882532;29;20032;-86
2021/10/26 00:28:57;;;;;;;4.50;3.83;;;;;;;18.20;67.77;101751.03;4882030;29;20032;-85
2021/10/26 00:31:24;;;;;;;4.22;3.83;;;;;;;18.17;67.95;101754.50;4898622;29;20104;-84
2021/10/26 00:33:50;;;;;;;4.38;3.83;;;;;;;18.17;68.39;101751.91;4851576;29;20033;-85
2021/10/26 00:36:15;;;;;;;5.45;3.88;;;;;;;18.15;68.36;101751.03;4866522;29;20495;-82
2021/10/26 00:38:41;;;;;;;5.03;3.60;;;;;;;18.16;68.34;101757.09;4881809;29;20032;-86
2021/10/26 00:41:06;;;;;;;4.10;3.70;;;;;;;18.15;68.49;101764.06;4866078;29;20028;-85
2021/10/26 00:43:32;;;;;;;4.63;3.65;;;;;;;18.14;68.35;101759.72;4881976;29;20108;-84
2021/10/26 00:45:58;;;;;;;4.18;3.78;;;;;;;18.15;68.47;101768.41;4866467;29;20033;-85
2021/10/26 00:48:23;;;;;;;4.90;3.72;;;;;;;18.12;68.60;101764.06;4881995;29;20119;-87
2021/10/26 00:50:49;;;;;;;3.78;3.38;;;;;;;18.13;68.45;101767.53;4897182;29;20029;-85
2021/10/26 00:53:18;;;;;;;4.10;3.70;;;;;;;18.12;68.54;101768.38;4882036;29;20036;-85
2021/10/26 00:55:45;;;;;;;5.32;3.88;;;;;;;18.11;68.39;101767.50;4898604;29;20444;-85
2021/10/26 00:58:11;;;;;;;4.57;3.63;;;;;;;18.13;68.51;101775.34;4881705;29;20481;-85
2021/10/26 01:00:37;;;;;;;4.07;3.25;;;;;;;18.11;68.32;101770.09;4897363;29;20032;-86
2021/10/26 01:03:02;;;;;;;4.63;3.60;;;;;;;18.11;68.31;101777.06;4866187;29;20028;-86
2021/10/26 01:05:27;;;;;;;5.22;3.72;;;;;;;18.10;68.46;101773.59;4881756;29;20072;-83
2021/10/26 01:07:53;;;;;;;4.32;3.67;;;;;;;18.09;68.30;101770.13;4866899;29;20127;-86
2021/10/26 01:10:19;;;;;;;4.63;3.75;;;;;;;18.10;68.58;101768.38;4900998;29;20052;-87
2021/10/26 01:12:45;;;;;;;3.97;3.25;;;;;;;18.10;68.45;101768.38;4885594;29;20100;-86
2021/10/26 01:15:11;;;;;;;4.10;3.70;;;;;;;18.10;68.54;101776.19;4854687;29;20484;-86
2021/10/26 01:17:37;;;;;;;4.07;3.50;;;;;;;18.09;68.33;101777.94;4854731;29;20048;-86
2021/10/26 01:20:03;;;;;;;4.65;3.63;;;;;;;18.07;68.44;101777.06;4902031;29;20417;-85
2021/10/26 01:22:30;;;;;;;4.03;3.22;;;;;;;18.07;68.59;101777.06;4870003;29;20048;-84
2021/10/26 01:24:56;;;;;;;4.63;3.58;;;;;;;18.08;68.39;101781.41;4870059;29;20426;-86
2021/10/26 01:27:22;;;;;;;4.90;3.70;;;;;;;18.09;68.36;101784.88;4869684;29;20028;-85
2021/10/26 01:29:48;;;;;;;4.97;3.75;;;;;;;18.08;68.18;101778.78;4885558;29;20056;-86
2021/10/26 01:32:16;;;;;;;4.95;3.70;;;;;;;18.07;68.81;101771.84;4869814;29;20041;-85
2021/10/26 01:34:41;;;;;;;4.05;3.60;;;;;;;18.08;68.05;101778.78;4885110;29;20085;-84
2021/10/26 01:37:09;;;;;;;3.67;3.25;;;;;;;18.08;68.18;101775.31;4885020;29;20033;-84
2021/10/26 01:39:35;;;;;;;3.60;3.28;;;;;;;18.08;68.22;101780.53;4900461;29;20080;-85
2021/10/26 01:42:02;;;;;;;5.10;3.97;;;;;;;18.07;68.14;101778.78;4885282;29;20036;-85
2021/10/26 01:44:28;;;;;;;4.07;3.33;;;;;;;18.08;68.42;101784.00;4884917;29;20084;-85
2021/10/26 01:46:55;;;;;;;4.70;3.70;;;;;;;18.08;68.01;101773.59;4901938;29;20489;-84
2021/10/26 01:49:22;;;;;;;3.88;3.47;;;;;;;18.07;68.23;101778.78;4884595;29;20477;-86
2021/10/26 01:51:49;;;;;;;4.65;3.70;;;;;;;18.07;68.41;101777.06;4869599;29;20044;-85
2021/10/26 01:54:18;;;;;;;4.63;3.65;;;;;;;18.08;67.82;101780.53;4884903;29;20033;-86
2021/10/26 01:56:44;;;;;;;4.10;3.47;;;;;;;18.07;68.35;101777.06;4884731;29;20032;-86
2021/10/26 01:59:10;;;;;;;3.65;3.17;;;;;;;18.08;67.87;101772.72;4884746;29;20478;-86
2021/10/26 02:01:36;;;;;;;3.33;2.95;;;;;;;18.08;68.18;101775.31;4884619;29;20025;-85
2021/10/26 02:04:01;;;;;;;4.03;3.30;;;;;;;18.07;68.19;101781.38;4869350;29;20040;-85
2021/10/26 02:06:30;;;;;;;5.15;3.20;;;;;;;18.07;68.17;101784.88;4868946;29;20036;-86
2021/10/26 02:09:00;;;;;;;4.50;3.50;;;;;;;18.07;68.16;101784.88;4884200;29;20072;-85
2021/10/26 02:11:25;;;;;;;4.18;3.08;;;;;;;18.06;68.36;101783.13;4854312;29;20102;-87
2021/10/26 02:13:51;;;;;;;3.90;3.28;;;;;;;18.07;68.16;101786.59;4868955;29;20046;-86
2021/10/26 02:16:19;;;;;;;5.05;3.47;;;;;;;18.06;68.32;101785.72;4869071;29;20087;-86
2021/10/26 02:18:44;;;;;;;3.92;3.28;;;;;;;18.06;68.08;101787.47;4884189;29;20474;-84
2021/10/26 02:21:10;;;;;;;4.25;3.50;;;;;;;18.06;68.06;101790.06;4867843;29;20124;-85
2021/10/26 02:23:35;;;;;;;4.50;3.35;;;;;;;18.08;68.00;101794.41;4884292;29;20036;-86
2021/10/26 02:26:00;;;;;;;4.20;3.55;;;;;;;18.07;68.08;101789.19;4884544;29;20032;-85
2021/10/26 02:28:26;;;;;;;4.32;3.15;;;;;;;18.07;67.84;101791.78;4884131;29;20139;-85
2021/10/26 02:30:52;;;;;;;3.75;3.10;;;;;;;18.06;67.84;101787.47;4884238;29;20033;-86
2021/10/26 02:33:17;;;;;;;3.92;3.38;;;;;;;18.05;67.84;101778.78;4868458;29;20398;-86
2021/10/26 02:35:43;;;;;;;3.45;2.92;;;;;;;18.05;67.92;101789.22;4853268;29;20131;-85
2021/10/26 02:38:08;;;;;;;4.30;3.50;;;;;;;18.06;67.91;101793.53;4884249;29;20119;-86
2021/10/26 02:40:33;;;;;;;4.20;3.20;;;;;;;18.04;68.10;101792.66;4853154;29;20041;-86
2021/10/26 02:42:59;;;;;;;4.45;3.22;;;;;;;18.04;68.18;101799.63;4853276;29;20047;-86
2021/10/26 02:45:28;;;;;;;4.95;3.10;;;;;;;18.04;68.19;101805.69;4884079;29;20033;-84
2021/10/26 02:47:55;;;;;;;4.10;3.17;;;;;;;18.04;67.95;101812.63;4899892;29;20115;-86
2021/10/26 02:50:23;;;;;;;4.20;3.17;;;;;;;18.06;68.11;101821.31;4900471;29;20489;-86
2021/10/26 02:52:49;;;;;;;4.28;3.00;;;;;;;18.06;68.14;101816.13;4884941;29;20033;-86
2021/10/26 02:55:14;;;;;;;4.55;3.20;;;;;;;18.07;67.87;101813.53;4884384;29;20029;-86
2021/10/26 02:57:40;;;;;;;4.72;2.85;;;;;;;18.09;67.58;101816.13;4868874;29;20587;-86
2021/10/26 03:00:08;;;;;;;6.00;3.20;;;;;;;18.11;67.78;101822.22;4884449;29;20400;-87
2021/10/26 03:02:33;;;;;;;3.67;2.80;;;;;;;18.12;67.83;101813.53;4883794;29;20020;-87
2021/10/26 03:04:59;;;;;;;3.50;2.83;;;;;;;18.13;67.40;101804.00;4883791;29;20115;-87
2021/10/26 03:07:24;;;;;;;3.40;2.70;;;;;;;18.14;67.45;101805.72;4868502;29;20140;-86
2021/10/26 03:09:50;;;;;;;2.70;2.50;;;;;;;18.15;67.60;101797.06;4867741;29;20057;-86
2021/10/26 03:12:15;;;;;;;3.50;2.90;;;;;;;18.15;67.34;101795.31;4899090;29;20040;-86
2021/10/26 03:14:41;;;;;;;3.30;2.70;;;;;;;18.17;67.35;101793.59;4900485;29;20039;-87
2021/10/26 03:17:06;;;;;;;2.97;2.42;;;;;;;18.17;67.45;101793.59;4868162;29;20083;-87
2021/10/26 03:19:32;;;;;;;3.00;2.70;;;;;;;18.19;67.55;101801.41;4900243;29;20037;-86
2021/10/26 03:21:57;;;;;;;3.90;2.85;;;;;;;18.18;67.12;101797.94;4883364;29;20032;-86
2021/10/26 03:24:25;;;;;;;3.28;2.67;;;;;;;18.19;67.40;101797.06;4899063;29;20028;-86
2021/10/26 03:26:51;;;;;;;3.08;2.45;;;;;;;18.21;67.49;101792.72;4883199;29;20039;-87
2021/10/26 03:29:16;;;;;;;3.85;2.60;;;;;;;18.21;66.96;101797.94;4867661;29;20123;-86
2021/10/26 03:31:42;;;;;;;3.03;2.72;;;;;;;18.22;67.08;101797.06;4867603;29;20041;-86
2021/10/26 03:34:08;;;;;;;3.17;2.67;;;;;;;18.22;67.19;101801.41;4883070;29;20028;-85
2021/10/26 03:36:33;;;;;;;4.60;2.50;;;;;;;18.24;67.45;101799.69;4882848;29;20043;-86
2021/10/26 03:38:59;;;;;;;2.75;2.42;;;;;;;18.23;67.10;101793.59;4867580;29;20103;-86
2021/10/26 03:41:25;;;;;;;3.20;2.40;;;;;;;18.24;67.35;101803.16;4882769;29;20374;-86
2021/10/26 03:43:51;;;;;;;3.10;2.55;;;;;;;18.24;67.32;101795.31;4867426;29;20033;-85
2021/10/26 03:46:17;;;;;;;2.47;2.25;;;;;;;18.25;67.08;101802.28;4882925;29;20485;-84
2021/10/26 03:48:43;;;;;;;2.92;2.30;;;;;;;18.26;67.12;101821.41;4882660;29;20051;-85
2021/10/26 03:51:09;;;;;;;2.60;2.30;;;;;;;18.25;67.47;101804.91;4882668;29;20478;-86
2021/10/26 03:53:35;;;;;;;2.83;2.30;;;;;;;18.26;67.27;101814.44;4867408;29;20028;-84
2021/10/26 03:56:01;;;;;;;2.83;2.42;;;;;;;18.28;67.08;101814.47;4882531;29;20079;-86
2021/10/26 03:58:26;;;;;;;3.00;2.25;;;;;;;18.28;67.00;101810.09;4867125;29;20080;-86
2021/10/26 04:00:52;;;;;;;3.42;2.30;;;;;;;18.28;66.71;101807.50;4852122;29;20032;-84
2021/10/26 04:03:17;;;;;;;3.05;2.20;;;;;;;18.30;66.96;101815.34;4882739;29;20100;-84
2021/10/26 04:08:33;;;;;;;2.95;2.55;;;;;;;18.30;67.02;101829.22;4899656;29;20036;-83
2021/10/26 04:11:04;;;;;;;3.05;2.42;;;;;;;18.32;66.94;101817.94;4869804;29;20040;-84
2021/10/26 04:13:29;;;;;;;2.90;2.42;;;;;;;18.30;67.10;101826.63;4867537;29;20037;-85
2021/10/26 04:15:55;;;;;;;3.03;2.30;;;;;;;18.32;66.99;101829.25;4851369;29;20054;-86
2021/10/26 04:18:23;;;;;;;3.65;2.58;;;;;;;18.33;67.21;101820.53;4882440;29;20025;-86
2021/10/26 04:20:48;;;;;;;2.92;2.13;;;;;;;18.32;66.93;101829.25;4882593;29;20033;-85
2021/10/26 04:23:13;;;;;;;3.22;2.17;;;;;;;18.32;66.84;101831.84;4866682;29;20028;-85
2021/10/26 04:25:39;;;;;;;2.53;1.92;;;;;;;18.33;67.27;101828.34;4866888;29;20029;-85
2021/10/26 04:28:05;;;;;;;2.40;2.10;;;;;;;18.34;67.01;101832.72;4882024;29;20378;-85
2021/10/26 04:30:33;;;;;;;3.15;2.30;;;;;;;18.33;67.28;101833.56;4897519;29;20064;-86
2021/10/26 04:33:00;;;;;;;2.50;2.10;;;;;;;18.33;67.10;101825.75;4897510;29;20373;-85
2021/10/26 04:35:25;;;;;;;4.35;2.33;;;;;;;18.35;67.02;101824.03;4882454;29;20037;-89
2021/10/26 04:37:52;;;;;;;2.25;2.00;;;;;;;18.38;66.85;101841.41;4882717;29;20035;-88
2021/10/26 04:40:18;;;;;;;6.70;2.47;;;;;;;18.39;66.87;101849.22;4898231;29;20024;-87
2021/10/26 04:42:43;;;;;;;3.30;1.95;;;;;;;18.38;66.80;101847.50;4882326;29;20031;-88
2021/10/26 04:45:09;;;;;;;3.55;2.10;;;;;;;18.39;66.86;101849.22;4851654;29;20119;-88
2021/10/26 04:47:35;;;;;;;2.65;2.17;;;;;;;18.37;66.71;101845.75;4882595;29;20032;-89
2021/10/26 04:50:02;;;;;;;2.47;2.17;;;;;;;18.34;66.61;101845.75;4882542;29;20029;-89
2021/10/26 04:52:27;;;;;;;3.05;2.08;;;;;;;18.36;66.57;101845.78;4882323;29;20021;-90
2021/10/26 04:54:53;;;;;;;2.53;2.20;;;;;;;18.35;66.68;101844.88;4882573;29;20092;-88
2021/10/26 04:57:18;;;;;;;5.55;2.35;;;;;;;18.33;66.61;101844.00;4851129;29;20028;-87
2021/10/26 04:59:44;;;;;;;3.45;2.40;;;;;;;18.32;66.90;101849.22;4866771;29;20029;-87
2021/10/26 05:02:09;;;;;;;4.60;2.30;;;;;;;18.31;66.99;101858.75;4866874;29;20115;-89
2021/10/26 05:04:34;;;;;;;2.83;2.03;;;;;;;18.30;66.98;101859.63;4867307;29;20496;-88
2021/10/26 05:07:00;;;;;;;9.65;4.10;;;;;;;18.30;67.06;101865.72;4868241;29;20043;-87
2021/10/26 05:09:26;;;;;;;15.07;6.50;;;;;;;18.30;67.13;101865.72;4850920;29;20068;-87
2021/10/26 05:11:52;;;;;;;12.05;5.28;;;;;;;18.28;67.07;101870.03;4881671;29;20088;-87
2021/10/26 05:14:17;;;;;;;14.30;5.20;;;;;;;18.28;67.27;101874.38;4897121;29;20037;-87
2021/10/26 05:16:46;;;;;;;11.13;4.57;;;;;;;18.26;67.08;101870.91;4851047;29;20036;-87
2021/10/26 05:19:12;;;;;;;9.80;4.18;;;;;;;18.25;67.27;101869.19;4881759;29;20123;-78
2021/10/26 05:21:38;;;;;;;12.02;4.22;;;;;;;18.25;67.16;101875.25;4881493;29;20549;-84
2021/10/26 05:24:04;;;;;;;8.30;4.20;;;;;;;18.28;67.24;101880.47;4898577;29;20033;-86
2021/10/26 05:26:35;;;;;;;10.40;3.97;;;;;;;18.29;67.22;101878.72;4898342;29;20045;-87
2021/10/26 05:29:01;;;;;;;17.92;6.53;;;;;;;18.29;67.15;101881.31;4865844;29;20504;-78
2021/10/26 05:31:27;;;;;;;18.90;6.05;;;;;;;18.24;67.37;101886.53;4881080;29;20048;-84
2021/10/26 05:33:53;;;;;;;17.92;5.78;;;;;;;18.21;67.34;101893.47;4898146;29;20032;-79
2021/10/26 05:36:19;;;;;;;20.48;5.15;;;;;;;18.18;67.24;101894.34;4850869;29;20549;-82
2021/10/26 05:38:44;;;;;;;13.07;5.18;;;;;;;18.17;67.10;101895.19;4898115;29;20339;-78
2021/10/26 05:41:11;;;;;;;14.80;4.53;;;;;;;18.16;67.45;101892.56;4881453;29;20060;-80
2021/10/26 05:43:38;;;;;;;13.35;4.50;;;;;;;18.14;67.27;101891.69;4865923;29;20367;-82
2021/10/26 05:46:03;;;;;;;12.98;4.50;;;;;;;18.14;67.54;101891.69;4881606;29;20112;-84
2021/10/26 05:48:32;;;;;;;6.75;4.10;;;;;;;18.12;67.29;101883.88;4881143;29;20108;-83
2021/10/26 05:51:00;;;;;;;11.65;4.75;;;;;;;18.12;67.38;101886.47;4881488;29;20111;-85
2021/10/26 05:53:26;;;;;;;12.75;4.40;;;;;;;18.12;67.41;101888.19;4897102;29;20028;-83
2021/10/26 05:55:51;;;;;;;6.97;4.15;;;;;;;18.11;67.65;101887.31;4869357;29;20044;-82
2021/10/26 05:58:17;;;;;;;8.27;4.22;;;;;;;18.11;67.43;101887.31;4884598;29;20092;-83
2021/10/26 06:00:42;;;;;;;9.98;4.60;;;;;;;18.11;67.32;101892.53;4884482;29;20039;-84
2021/10/26 06:03:08;;;;;;;10.63;4.13;;;;;;;18.12;67.53;101890.81;4869040;29;20481;-85
2021/10/26 06:05:38;;;;;;;14.98;5.18;;;;;;;18.20;69.07;101883.91;4901458;29;20039;-83
2021/10/26 06:08:06;;;;;;;8.52;4.30;;;;;;;18.25;70.50;101883.06;4868970;29;20036;-84
2021/10/26 06:10:33;;;;;;;8.43;4.28;;;;;;;18.07;69.75;101886.47;4853403;29;20402;-84
2021/10/26 06:13:13;;;;;;;10.90;4.22;;;;;;;17.98;68.99;101889.00;4884462;29;20470;-84
2021/10/26 06:15:40;;;;;;;8.80;3.35;;;;;;;17.93;70.01;101890.72;4870893;29;20038;-82
2021/10/26 06:18:06;;;;;;;8.15;4.03;;;;;;;17.93;68.72;101895.94;4868318;29;20041;-84
2021/10/26 06:20:32;;;;;;;9.68;3.55;;;;;;;17.89;69.41;101897.63;4884226;29;20541;-84
2021/10/26 06:22:58;;;;;;;7.00;3.53;;;;;;;17.90;68.96;101898.53;4901192;29;20028;-83
2021/10/26 06:25:23;;;;;;;5.43;3.17;;;;;;;17.90;69.68;101901.13;4899728;29;20024;-81
2021/10/26 06:27:49;;;;;;;8.48;3.60;;;;;;;17.88;69.03;101903.72;4901129;29;20476;-83
2021/10/26 06:30:14;;;;;;;9.75;3.70;;;;;;;17.87;70.31;101907.16;4884446;29;20038;-83
2021/10/26 06:32:41;;;;;;;9.57;3.63;;;;;;;17.87;69.18;101903.69;4884563;29;20116;-83
2021/10/26 06:35:09;;;;;;;5.95;3.33;;;;;;;17.89;70.08;101910.66;4884050;29;20449;-84
2021/10/26 06:37:43;;;;;;;7.65;3.92;;;;;;;17.87;70.04;101912.38;4884235;29;20116;-84
2021/10/26 06:40:13;;;;;;;6.57;3.42;;;;;;;17.87;68.65;101920.19;4869240;29;20040;-84
2021/10/26 06:42:40;;;;;;;5.55;3.40;;;;;;;17.91;69.34;101915.88;4853550;29;20032;-84
2021/10/26 06:45:05;;;;;;;6.32;3.17;;;;;;;17.94;69.27;101921.09;4899748;29;20024;-84
2021/10/26 06:47:31;;;;;;;6.63;3.40;;;;;;;17.95;68.69;101922.84;4883838;29;20389;-84
2021/10/26 06:49:56;;;;;;;7.85;3.58;;;;;;;17.98;68.79;101927.19;4883537;29;20021;-84
2021/10/26 06:52:22;;;;;;;6.43;3.28;;;;;;;17.99;68.77;101913.34;4900232;29;20168;-83
2021/10/26 06:54:47;;;;;;;5.35;2.90;;;;;;;18.00;68.49;101922.88;4852509;29;20031;-84
2021/10/26 06:57:14;;;;;;;6.60;3.20;;;;;;;17.99;68.42;101923.75;4899195;29;20040;-84
2021/10/26 06:59:52;;;;;;;7.13;3.30;;;;;;;18.01;68.49;101927.25;4883671;29;20055;-83
2021/10/26 07:02:18;;;;;;;6.40;2.97;;;;;;;18.03;68.46;101925.47;4855884;29;20035;-83
2021/10/26 07:04:44;;;;;;;5.75;3.20;;;;;;;18.04;68.52;101925.50;4867942;29;20029;-83
2021/10/26 07:07:10;;;;;;;5.10;3.22;;;;;;;18.05;68.75;101926.38;4882904;29;20450;-84
2021/10/26 07:09:35;;;;;;;4.90;2.85;;;;;;;18.05;68.65;101929.88;4867595;29;20053;-82
2021/10/26 07:12:01;;;;;;;6.22;3.47;;;;;;;18.07;67.39;101930.75;4898709;29;20033;-81
2021/10/26 07:14:27;;;;;;;5.47;2.85;;;;;;;18.08;68.50;101942.91;4900228;29;20029;-83
2021/10/26 07:16:52;;;;;;;4.60;2.67;;;;;;;18.14;67.74;101942.06;4883275;29;20477;-82
2021/10/26 07:19:18;;;;;;;4.97;2.97;;;;;;;18.15;67.63;101942.94;4883306;29;20071;-83
2021/10/26 07:21:43;;;;;;;4.63;2.80;;;;;;;18.15;67.85;101938.59;4867513;29;20434;-83
2021/10/26 07:24:11;;;;;;;5.22;3.00;;;;;;;18.23;68.47;101955.13;4898603;29;20080;-82
2021/10/26 07:26:37;;;;;;;5.10;2.78;;;;;;;18.28;67.87;101948.22;4853175;29;20123;-84
2021/10/26 07:29:03;;;;;;;3.90;2.70;;;;;;;18.32;67.41;101943.91;4852595;29;20070;-84
2021/10/26 07:31:28;;;;;;;5.63;2.90;;;;;;;18.33;67.29;101948.22;4883010;29;20044;-84
2021/10/26 07:33:58;;;;;;;4.80;2.80;;;;;;;18.34;67.56;101949.13;4883039;29;20033;-81
2021/10/26 07:36:28;;;;;;;5.03;2.33;;;;;;;18.33;67.13;101945.63;4868083;29;20055;-84
2021/10/26 07:38:59;;;;;;;4.53;2.70;;;;;;;18.33;67.89;101944.75;4884064;29;20512;-84
2021/10/26 07:41:25;;;;;;;4.43;2.60;;;;;;;18.30;67.23;101949.09;4883134;29;20024;-84
2021/10/26 07:43:50;;;;;;;4.53;2.75;;;;;;;18.26;67.71;101949.94;4898768;29;20027;-85
2021/10/26 07:46:18;;;;;;;5.13;2.90;;;;;;;18.24;67.44;101950.78;4852342;29;20037;-85
2021/10/26 07:48:43;;;;;;;4.93;2.75;;;;;;;18.23;67.92;101951.66;4883451;29;20064;-85
2021/10/26 07:51:08;;;;;;;3.88;2.53;;;;;;;18.20;68.35;101949.91;4867390;29;20063;-84
2021/10/26 07:53:34;;;;;;;4.32;2.45;;;;;;;18.17;68.34;101941.22;4867592;29;20378;-84
2021/10/26 07:56:02;;;;;;;6.07;2.60;;;;;;;18.16;68.56;101942.97;4867424;29;20032;-87
2021/10/26 07:58:28;;;;;;;4.68;2.70;;;;;;;18.14;68.36;101954.19;4882980;29;20032;-83
2021/10/26 08:00:54;;;;;;;4.90;2.78;;;;;;;18.13;68.22;101950.72;4882706;29;20032;-85
2021/10/26 08:03:21;;;;;;;4.30;2.50;;;;;;;18.11;68.25;101959.41;4882620;29;20393;-85
2021/10/26 08:05:46;;;;;;;4.57;2.80;;;;;;;18.12;67.96;101963.75;4882739;29;20474;-85
2021/10/26 08:08:12;;;;;;;4.22;2.72;;;;;;;18.10;68.19;101968.97;4882666;29;20040;-86
2021/10/26 08:10:38;;;;;;;6.15;2.58;;;;;;;18.09;68.66;101964.59;4882605;29;20455;-85
2021/10/26 08:13:03;;;;;;;4.82;2.40;;;;;;;18.09;68.39;101960.28;4882583;29;20044;-84
2021/10/26 08:15:29;;;;;;;4.75;2.67;;;;;;;18.08;68.81;101971.53;4882662;29;20028;-85
2021/10/26 08:17:56;;;;;;;3.75;2.35;;;;;;;18.08;68.17;101962.88;4866300;29;20494;-84
2021/10/26 08:20:22;;;;;;;4.28;2.45;;;;;;;18.08;68.95;101961.13;4898034;29;20545;-82
2021/10/26 08:22:47;;;;;;;3.92;2.70;;;;;;;18.08;68.60;101952.44;4882390;29;20052;-85
2021/10/26 08:25:24;;;;;;;3.95;2.40;;;;;;;18.07;68.42;101959.41;4882303;29;20044;-85
2021/10/26 08:28:00;;;;;;;4.93;2.42;;;;;;;18.05;68.26;101950.69;4867305;29;20480;-85
2021/10/26 08:33:12;;;;;;;5.50;2.60;;;;;;;18.05;68.76;101953.31;4899181;29;20032;-85
2021/10/26 08:35:37;;;;;;;5.32;2.45;;;;;;;18.05;68.51;101955.00;4898934;29;20032;-85
2021/10/26 08:38:05;;;;;;;4.90;2.63;;;;;;;18.07;68.03;101959.41;4898842;29;20032;-84
2021/10/26 08:40:33;;;;;;;3.80;2.25;;;;;;;18.12;68.59;101953.31;4881925;29;20054;-85
2021/10/26 08:43:03;;;;;;;3.47;2.30;;;;;;;18.17;68.72;101944.69;4897999;29;20488;-81
2021/10/26 08:45:31;;;;;;;3.40;2.17;;;;;;;18.21;68.85;101943.84;4867425;29;20036;-85
2021/10/26 08:48:07;;;;;;;3.70;2.30;;;;;;;18.22;69.25;101942.97;4897489;29;20054;-83
2021/10/26 08:50:36;;;;;;;4.68;2.47;;;;;;;18.23;68.81;101949.94;4899098;29;20027;-84
2021/10/26 08:53:04;;;;;;;3.55;2.33;;;;;;;18.24;67.77;101949.06;4866951;29;20029;-86
2021/10/26 08:55:34;;;;;;;4.45;2.58;;;;;;;18.25;67.85;101947.34;4882089;29;20029;-85
2021/10/26 08:58:04;;;;;;;4.82;2.08;;;;;;;18.26;68.51;101944.72;4881885;29;20442;-85
2021/10/26 09:00:30;;;;;;;4.55;2.35;;;;;;;18.27;67.91;101949.09;4881987;29;20024;-84
2021/10/26 09:02:55;;;;;;;4.93;2.50;;;;;;;18.26;68.30;101943.84;4897450;29;20035;-85
2021/10/26 09:05:24;;;;;;;4.18;2.13;;;;;;;18.26;68.10;101942.13;4881967;29;20025;-81
2021/10/26 09:08:06;;;;;;;3.65;2.10;;;;;;;18.27;67.54;101943.88;4881976;29;20487;-84
2021/10/26 09:10:34;;;;;;;3.15;2.20;;;;;;;18.26;67.71;101946.47;4897227;29;20055;-84
2021/10/26 09:18:39;;;;;;;4.00;2.15;;;;;;;18.22;68.32;101949.91;4884927;29;19922;-83
2021/10/26 09:21:05;;;;;;;3.13;2.00;;;;;;;18.21;68.45;101951.66;4866355;29;20131;-84
2021/10/26 09:23:30;;;;;;;4.15;2.50;;;;;;;18.19;68.86;101957.72;4897211;29;20129;-84
2021/10/26 09:26:00;;;;;;;4.60;2.33;;;;;;;18.16;68.81;101952.47;4866257;29;20132;-85
2021/10/26 09:28:27;;;;;;;3.00;2.30;;;;;;;18.14;68.76;101949.00;4881498;29;20155;-80
2021/10/26 09:31:00;;;;;;;3.60;2.15;;;;;;;18.13;68.79;101958.53;4885554;29;20594;-84
2021/10/26 09:34:04;;;;;;;3.22;2.10;;;;;;;18.12;68.53;101951.59;4885543;29;20029;-83
2021/10/26 09:36:39;;;;;;;2.72;2.17;;;;;;;18.12;68.59;101949.00;4863531;29;20478;-83
2021/10/26 09:39:04;;;;;;;3.55;2.10;;;;;;;18.14;68.36;101946.38;4885079;29;20055;-83
2021/10/26 09:42:02;;;;;;;2.83;1.73;;;;;;;18.16;68.08;101955.09;4885130;29;20056;-82
2021/10/26 09:44:44;;;;;;;3.97;2.30;;;;;;;18.16;68.73;101955.09;4900940;29;20044;-83
2021/10/26 09:47:19;;;;;;;3.22;2.10;;;;;;;18.16;68.30;101945.56;4900591;29;20080;-85
2021/10/26 09:50:08;;;;;;;2.92;1.88;;;;;;;18.17;68.24;101955.09;4884906;29;20057;-84
2021/10/26 09:52:36;;;;;;;4.47;1.88;;;;;;;18.17;68.55;101955.09;4882112;29;20036;-84
2021/10/26 09:55:28;;;;;;;3.70;2.10;;;;;;;18.16;68.40;101958.59;4901551;29;20390;-84
2021/10/26 09:58:05;;;;;;;2.80;1.77;;;;;;;18.21;68.42;101959.47;4884654;29;20028;-85
2021/10/26 10:00:39;;;;;;;4.40;2.15;;;;;;;18.22;68.09;101961.19;4884591;29;20024;-80
2021/10/26 10:03:06;;;;;;;2.65;1.90;;;;;;;18.22;68.32;101956.00;4901391;29;20043;-84
2021/10/26 10:05:42;;;;;;;2.90;1.70;;;;;;;18.20;67.97;101956.84;4884789;29;20029;-85
2021/10/26 10:08:23;;;;;;;3.22;1.90;;;;;;;18.18;68.07;101956.84;4884565;29;20385;-84
2021/10/26 10:10:52;;;;;;;4.10;1.88;;;;;;;18.15;68.10;101955.97;4884749;29;20123;-85
2021/10/26 10:13:18;;;;;;;3.05;1.70;;;;;;;18.14;68.52;101952.50;4884570;29;20404;-83
2021/10/26 10:15:50;;;;;;;3.83;2.17;;;;;;;18.14;68.52;101951.59;4868969;29;20029;-84
2021/10/26 10:18:21;;;;;;;3.58;1.80;;;;;;;18.08;68.55;101950.72;4869462;29;20393;-84
2021/10/26 10:20:51;;;;;;;2.92;1.65;;;;;;;18.09;68.74;101957.69;4884374;29;20028;-84
2021/10/26 10:23:17;;;;;;;3.33;1.60;;;;;;;18.09;68.43;101957.69;4901346;29;20032;-85
2021/10/26 10:25:47;;;;;;;3.75;2.00;;;;;;;18.08;69.12;101962.88;4884764;29;20497;-85
2021/10/26 10:28:18;;;;;;;2.70;1.80;;;;;;;18.08;68.65;101965.47;4901327;29;20099;-85
2021/10/26 10:30:44;;;;;;;2.67;2.00;;;;;;;18.06;68.77;101951.56;4885142;29;20036;-85
2021/10/26 10:33:10;;;;;;;3.97;1.63;;;;;;;18.07;68.52;101958.50;4868616;29;20116;-85
2021/10/26 10:35:38;;;;;;;2.70;1.90;;;;;;;18.07;68.34;101956.78;4884065;29;20035;-85
2021/10/26 10:38:06;;;;;;;3.97;1.90;;;;;;;18.09;68.00;101947.25;4884016;29;20041;-85
2021/10/26 10:40:33;;;;;;;2.90;1.80;;;;;;;18.11;68.59;101952.44;4868105;29;20052;-84
2021/10/26 10:43:00;;;;;;;3.90;1.83;;;;;;;18.14;68.43;101951.59;4884051;29;20056;-84
2021/10/26 10:45:35;;;;;;;2.97;1.75;;;;;;;18.17;68.16;101954.25;4884490;29;20034;-84
2021/10/26 10:48:02;;;;;;;2.20;1.70;;;;;;;18.17;68.18;101949.03;4884297;29;20032;-84
2021/10/26 10:50:37;;;;;;;3.70;1.70;;;;;;;18.17;68.12;101951.63;4899669;29;20055;-85
2021/10/26 10:53:14;;;;;;;2.30;1.52;;;;;;;18.16;68.30;101947.28;4899614;29;20426;-84
2021/10/26 10:56:08;;;;;;;3.35;1.70;;;;;;;18.15;67.98;101946.41;4900833;29;20419;-84
2021/10/26 10:58:39;;;;;;;3.08;1.67;;;;;;;18.15;68.85;101945.53;4883736;29;20470;-84
2021/10/26 11:01:36;;;;;;;3.15;1.90;;;;;;;18.12;68.51;101940.28;4899382;29;20024;-86
2021/10/26 11:04:20;;;;;;;3.00;1.70;;;;;;;18.13;68.16;101948.13;4900552;29;20477;-85
2021/10/26 11:06:45;;;;;;;4.70;1.80;;;;;;;18.11;68.13;101942.03;4883700;29;20024;-84
2021/10/26 11:09:30;;;;;;;3.03;1.70;;;;;;;18.09;69.12;101944.66;4883836;29;20052;-84
2021/10/26 11:12:12;;;;;;;3.03;1.80;;;;;;;18.09;68.48;101941.16;4883579;29;20071;-86
2021/10/26 11:14:55;;;;;;;4.10;1.90;;;;;;;18.09;68.81;101941.16;4883681;29;20363;-83
2021/10/26 11:17:33;;;;;;;2.85;1.80;;;;;;;18.08;68.46;101945.50;4883192;29;20021;-83
2021/10/26 11:20:08;;;;;;;2.72;1.73;;;;;;;18.09;68.42;101943.75;4883271;29;20033;-84
2021/10/26 11:22:45;;;;;;;3.42;1.42;;;;;;;18.07;68.66;101943.78;4883166;29;20549;-84
2021/10/26 11:25:34;;;;;;;2.70;1.90;;;;;;;18.05;68.61;101940.28;4883414;29;20115;-83
2021/10/26 11:28:01;;;;;;;2.30;1.50;;;;;;;18.06;68.81;101951.56;4883436;29;20032;-85
2021/10/26 11:30:29;;;;;;;2.72;1.70;;;;;;;18.03;68.55;101943.72;4867724;29;20029;-82
2021/10/26 11:33:13;;;;;;;3.58;2.13;;;;;;;18.02;68.89;101935.03;4883099;29;20060;-84
2021/10/26 11:35:53;;;;;;;2.45;1.30;;;;;;;18.04;69.02;101940.25;4883232;29;20139;-85
2021/10/26 11:38:21;;;;;;;3.53;1.77;;;;;;;18.04;68.66;101935.91;4883068;29;20029;-84
2021/10/26 11:41:07;;;;;;;4.93;1.80;;;;;;;18.04;68.83;101941.13;4882965;29;20036;-84